sensor_id;sensor_type;location;lat;lon;timestamp;P1;durP1;ratioP1;P2;durP2;ratioP2
39524;SDS011;25203;50.754;6.978;2022-07-24T00:01:24;9.05;;;6.40;;
39524;SDS011;25203;50.754;6.978;2022-07-24T00:03:25;7.32;;;6.25;;
39524;SDS011;25203;50.754;6.978;2022-07-24T00:05:26;7.10;;;6.35;;
39524;SDS011;25203;50.754;6.978;2022-07-24T00:07:27;11.93;;;6.43;;
39524;SDS011;25203;50.754;6.978;2022-07-24T00:09:28;7.03;;;6.13;;
39524;SDS011;25203;50.754;6.978;2022-07-24T00:11:29;8.10;;;5.97;;
39524;SDS011;25203;50.754;6.978;2022-07-24T00:13:29;11.13;;;6.53;;
39524;SDS011;25203;50.754;6.978;2022-07-24T00:15:30;8.45;;;6.78;;
39524;SDS011;25203;50.754;6.978;2022-07-24T00:17:31;7.13;;;6.20;;
39524;SDS011;25203;50.754;6.978;2022-07-24T00:19:31;13.38;;;6.45;;
39524;SDS011;25203;50.754;6.978;2022-07-24T00:21:32;9.20;;;6.32;;
39524;SDS011;25203;50.754;6.978;2022-07-24T00:23:32;6.90;;;5.90;;
39524;SDS011;25203;50.754;6.978;2022-07-24T00:25:33;7.97;;;6.13;;
39524;SDS011;25203;50.754;6.978;2022-07-24T00:27:34;9.73;;;6.00;;
39524;SDS011;25203;50.754;6.978;2022-07-24T00:29:34;6.43;;;5.03;;
39524;SDS011;25203;50.754;6.978;2022-07-24T00:31:35;6.20;;;5.53;;
39524;SDS011;25203;50.754;6.978;2022-07-24T00:33:36;8.85;;;5.65;;
39524;SDS011;25203;50.754;6.978;2022-07-24T00:35:36;11.13;;;6.32;;
39524;SDS011;25203;50.754;6.978;2022-07-24T00:37:37;8.07;;;6.05;;
39524;SDS011;25203;50.754;6.978;2022-07-24T00:39:38;8.18;;;7.25;;
39524;SDS011;25203;50.754;6.978;2022-07-24T00:41:38;6.93;;;6.05;;
39524;SDS011;25203;50.754;6.978;2022-07-24T00:43:58;7.57;;;6.65;;
39524;SDS011;25203;50.754;6.978;2022-07-24T00:46:00;7.65;;;6.85;;
39524;SDS011;25203;50.754;6.978;2022-07-24T00:48:00;6.97;;;6.28;;
39524;SDS011;25203;50.754;6.978;2022-07-24T00:50:01;8.05;;;6.20;;
39524;SDS011;25203;50.754;6.978;2022-07-24T00:52:04;9.15;;;6.10;;
39524;SDS011;25203;50.754;6.978;2022-07-24T00:54:05;8.25;;;6.38;;
39524;SDS011;25203;50.754;6.978;2022-07-24T00:56:07;8.30;;;6.78;;
39524;SDS011;25203;50.754;6.978;2022-07-24T00:58:08;10.82;;;6.85;;
39524;SDS011;25203;50.754;6.978;2022-07-24T01:00:09;7.45;;;6.65;;
39524;SDS011;25203;50.754;6.978;2022-07-24T01:02:10;7.20;;;6.47;;
39524;SDS011;25203;50.754;6.978;2022-07-24T01:04:11;8.80;;;7.13;;
39524;SDS011;25203;50.754;6.978;2022-07-24T01:06:13;7.32;;;6.55;;
39524;SDS011;25203;50.754;6.978;2022-07-24T01:08:14;6.82;;;6.13;;
39524;SDS011;25203;50.754;6.978;2022-07-24T01:10:14;8.23;;;6.45;;
39524;SDS011;25203;50.754;6.978;2022-07-24T01:12:15;7.25;;;6.05;;
39524;SDS011;25203;50.754;6.978;2022-07-24T01:14:17;10.05;;;6.60;;
39524;SDS011;25203;50.754;6.978;2022-07-24T01:16:18;8.00;;;6.93;;
39524;SDS011;25203;50.754;6.978;2022-07-24T01:18:18;9.13;;;7.50;;
39524;SDS011;25203;50.754;6.978;2022-07-24T01:20:19;8.23;;;7.22;;
39524;SDS011;25203;50.754;6.978;2022-07-24T01:22:20;8.70;;;6.65;;
39524;SDS011;25203;50.754;6.978;2022-07-24T01:24:21;7.90;;;7.10;;
39524;SDS011;25203;50.754;6.978;2022-07-24T01:26:22;8.32;;;7.45;;
39524;SDS011;25203;50.754;6.978;2022-07-24T01:28:22;8.02;;;6.68;;
39524;SDS011;25203;50.754;6.978;2022-07-24T01:30:23;6.97;;;6.38;;
39524;SDS011;25203;50.754;6.978;2022-07-24T01:32:24;9.20;;;6.43;;
39524;SDS011;25203;50.754;6.978;2022-07-24T01:34:25;7.93;;;6.72;;
39524;SDS011;25203;50.754;6.978;2022-07-24T01:36:25;10.63;;;6.80;;
39524;SDS011;25203;50.754;6.978;2022-07-24T01:38:26;9.80;;;6.47;;
39524;SDS011;25203;50.754;6.978;2022-07-24T01:40:26;7.78;;;6.40;;
39524;SDS011;25203;50.754;6.978;2022-07-24T01:42:27;7.00;;;6.30;;
39524;SDS011;25203;50.754;6.978;2022-07-24T01:44:28;7.78;;;6.43;;
39524;SDS011;25203;50.754;6.978;2022-07-24T01:46:28;7.10;;;6.13;;
39524;SDS011;25203;50.754;6.978;2022-07-24T01:48:29;8.40;;;6.28;;
39524;SDS011;25203;50.754;6.978;2022-07-24T01:50:30;9.70;;;6.70;;
39524;SDS011;25203;50.754;6.978;2022-07-24T01:52:31;9.93;;;6.88;;
39524;SDS011;25203;50.754;6.978;2022-07-24T01:54:31;7.78;;;6.97;;
39524;SDS011;25203;50.754;6.978;2022-07-24T01:56:32;11.27;;;7.32;;
39524;SDS011;25203;50.754;6.978;2022-07-24T01:58:33;10.25;;;7.13;;
39524;SDS011;25203;50.754;6.978;2022-07-24T02:00:34;10.48;;;7.18;;
39524;SDS011;25203;50.754;6.978;2022-07-24T02:02:35;7.72;;;6.93;;
39524;SDS011;25203;50.754;6.978;2022-07-24T02:04:35;14.30;;;6.90;;
39524;SDS011;25203;50.754;6.978;2022-07-24T02:06:36;7.70;;;6.78;;
39524;SDS011;25203;50.754;6.978;2022-07-24T02:08:37;7.72;;;6.93;;
39524;SDS011;25203;50.754;6.978;2022-07-24T02:10:37;7.53;;;6.82;;
39524;SDS011;25203;50.754;6.978;2022-07-24T02:12:38;8.05;;;7.25;;
39524;SDS011;25203;50.754;6.978;2022-07-24T02:14:39;8.27;;;5.85;;
39524;SDS011;25203;50.754;6.978;2022-07-24T02:16:39;7.82;;;7.05;;
39524;SDS011;25203;50.754;6.978;2022-07-24T02:18:40;10.07;;;7.65;;
39524;SDS011;25203;50.754;6.978;2022-07-24T02:20:40;8.00;;;7.20;;
39524;SDS011;25203;50.754;6.978;2022-07-24T02:22:41;8.70;;;6.40;;
39524;SDS011;25203;50.754;6.978;2022-07-24T02:24:42;7.88;;;6.78;;
39524;SDS011;25203;50.754;6.978;2022-07-24T02:26:42;10.52;;;7.78;;
39524;SDS011;25203;50.754;6.978;2022-07-24T02:28:43;7.75;;;6.65;;
39524;SDS011;25203;50.754;6.978;2022-07-24T02:30:44;8.25;;;6.13;;
39524;SDS011;25203;50.754;6.978;2022-07-24T02:32:44;6.78;;;5.63;;
39524;SDS011;25203;50.754;6.978;2022-07-24T02:34:45;7.50;;;6.43;;
39524;SDS011;25203;50.754;6.978;2022-07-24T02:36:45;8.02;;;6.57;;
39524;SDS011;25203;50.754;6.978;2022-07-24T02:38:46;10.27;;;8.35;;
39524;SDS011;25203;50.754;6.978;2022-07-24T02:40:47;8.90;;;7.82;;
39524;SDS011;25203;50.754;6.978;2022-07-24T02:42:47;9.38;;;7.68;;
39524;SDS011;25203;50.754;6.978;2022-07-24T02:44:48;10.20;;;7.72;;
39524;SDS011;25203;50.754;6.978;2022-07-24T02:46:49;10.23;;;7.22;;
39524;SDS011;25203;50.754;6.978;2022-07-24T02:48:49;9.52;;;7.80;;
39524;SDS011;25203;50.754;6.978;2022-07-24T02:50:50;8.57;;;7.68;;
39524;SDS011;25203;50.754;6.978;2022-07-24T02:52:51;9.43;;;7.50;;
39524;SDS011;25203;50.754;6.978;2022-07-24T02:54:52;8.48;;;7.57;;
39524;SDS011;25203;50.754;6.978;2022-07-24T02:56:52;10.27;;;7.45;;
39524;SDS011;25203;50.754;6.978;2022-07-24T02:58:53;8.35;;;6.88;;
39524;SDS011;25203;50.754;6.978;2022-07-24T03:00:54;11.38;;;6.97;;
39524;SDS011;25203;50.754;6.978;2022-07-24T03:02:54;8.20;;;7.40;;
39524;SDS011;25203;50.754;6.978;2022-07-24T03:04:55;9.18;;;7.38;;
39524;SDS011;25203;50.754;6.978;2022-07-24T03:06:55;9.65;;;7.75;;
39524;SDS011;25203;50.754;6.978;2022-07-24T03:08:56;10.45;;;7.65;;
39524;SDS011;25203;50.754;6.978;2022-07-24T03:10:57;7.90;;;7.13;;
39524;SDS011;25203;50.754;6.978;2022-07-24T03:12:59;6.88;;;6.07;;
39524;SDS011;25203;50.754;6.978;2022-07-24T03:14:59;8.38;;;6.28;;
39524;SDS011;25203;50.754;6.978;2022-07-24T03:17:00;7.47;;;6.65;;
39524;SDS011;25203;50.754;6.978;2022-07-24T03:19:01;7.95;;;7.15;;
39524;SDS011;25203;50.754;6.978;2022-07-24T03:21:01;10.18;;;7.43;;
39524;SDS011;25203;50.754;6.978;2022-07-24T03:23:02;9.85;;;8.32;;
39524;SDS011;25203;50.754;6.978;2022-07-24T03:25:03;9.90;;;8.27;;
39524;SDS011;25203;50.754;6.978;2022-07-24T03:27:04;10.48;;;7.88;;
39524;SDS011;25203;50.754;6.978;2022-07-24T03:29:04;11.52;;;7.53;;
39524;SDS011;25203;50.754;6.978;2022-07-24T03:31:05;8.57;;;7.65;;
39524;SDS011;25203;50.754;6.978;2022-07-24T03:33:06;8.68;;;7.78;;
39524;SDS011;25203;50.754;6.978;2022-07-24T03:35:07;9.77;;;8.02;;
39524;SDS011;25203;50.754;6.978;2022-07-24T03:37:08;8.88;;;7.95;;
39524;SDS011;25203;50.754;6.978;2022-07-24T03:39:08;9.00;;;7.05;;
39524;SDS011;25203;50.754;6.978;2022-07-24T03:41:09;8.98;;;8.07;;
39524;SDS011;25203;50.754;6.978;2022-07-24T03:43:10;10.63;;;8.05;;
39524;SDS011;25203;50.754;6.978;2022-07-24T03:45:11;7.40;;;6.60;;
39524;SDS011;25203;50.754;6.978;2022-07-24T03:47:12;8.52;;;7.30;;
39524;SDS011;25203;50.754;6.978;2022-07-24T03:49:12;8.40;;;6.88;;
39524;SDS011;25203;50.754;6.978;2022-07-24T03:51:13;8.75;;;7.72;;
39524;SDS011;25203;50.754;6.978;2022-07-24T03:53:13;8.70;;;7.75;;
39524;SDS011;25203;50.754;6.978;2022-07-24T03:55:14;9.38;;;7.18;;
39524;SDS011;25203;50.754;6.978;2022-07-24T03:57:15;7.68;;;6.75;;
39524;SDS011;25203;50.754;6.978;2022-07-24T03:59:15;6.68;;;5.97;;
39524;SDS011;25203;50.754;6.978;2022-07-24T04:01:16;8.35;;;6.63;;
39524;SDS011;25203;50.754;6.978;2022-07-24T04:03:17;10.05;;;7.32;;
39524;SDS011;25203;50.754;6.978;2022-07-24T04:05:17;7.63;;;6.82;;
39524;SDS011;25203;50.754;6.978;2022-07-24T04:07:18;7.32;;;6.65;;
39524;SDS011;25203;50.754;6.978;2022-07-24T04:09:18;10.70;;;8.80;;
39524;SDS011;25203;50.754;6.978;2022-07-24T04:11:19;9.38;;;7.15;;
39524;SDS011;25203;50.754;6.978;2022-07-24T04:13:20;7.47;;;6.70;;
39524;SDS011;25203;50.754;6.978;2022-07-24T04:15:20;7.32;;;6.60;;
39524;SDS011;25203;50.754;6.978;2022-07-24T04:17:21;7.95;;;7.03;;
39524;SDS011;25203;50.754;6.978;2022-07-24T04:19:21;8.07;;;6.88;;
39524;SDS011;25203;50.754;6.978;2022-07-24T04:21:22;10.65;;;8.00;;
39524;SDS011;25203;50.754;6.978;2022-07-24T04:23:23;7.05;;;6.40;;
39524;SDS011;25203;50.754;6.978;2022-07-24T04:25:23;8.48;;;7.43;;
39524;SDS011;25203;50.754;6.978;2022-07-24T04:27:24;7.35;;;6.65;;
39524;SDS011;25203;50.754;6.978;2022-07-24T04:29:24;9.65;;;7.35;;
39524;SDS011;25203;50.754;6.978;2022-07-24T04:31:25;7.45;;;6.68;;
39524;SDS011;25203;50.754;6.978;2022-07-24T04:33:26;6.13;;;5.57;;
39524;SDS011;25203;50.754;6.978;2022-07-24T04:35:26;7.10;;;6.40;;
39524;SDS011;25203;50.754;6.978;2022-07-24T04:37:27;9.68;;;6.13;;
39524;SDS011;25203;50.754;6.978;2022-07-24T04:39:27;7.22;;;5.90;;
39524;SDS011;25203;50.754;6.978;2022-07-24T04:41:28;7.00;;;6.30;;
39524;SDS011;25203;50.754;6.978;2022-07-24T04:43:29;6.75;;;6.05;;
39524;SDS011;25203;50.754;6.978;2022-07-24T04:45:30;8.38;;;6.70;;
39524;SDS011;25203;50.754;6.978;2022-07-24T04:47:31;7.85;;;7.05;;
39524;SDS011;25203;50.754;6.978;2022-07-24T04:49:31;7.05;;;6.35;;
39524;SDS011;25203;50.754;6.978;2022-07-24T04:51:32;8.25;;;6.47;;
39524;SDS011;25203;50.754;6.978;2022-07-24T04:53:33;8.32;;;7.53;;
39524;SDS011;25203;50.754;6.978;2022-07-24T04:55:33;7.75;;;6.95;;
39524;SDS011;25203;50.754;6.978;2022-07-24T04:57:34;7.80;;;6.97;;
39524;SDS011;25203;50.754;6.978;2022-07-24T04:59:34;9.18;;;7.70;;
39524;SDS011;25203;50.754;6.978;2022-07-24T05:01:35;8.20;;;7.03;;
39524;SDS011;25203;50.754;6.978;2022-07-24T05:03:36;8.00;;;7.20;;
39524;SDS011;25203;50.754;6.978;2022-07-24T05:05:36;8.75;;;6.63;;
39524;SDS011;25203;50.754;6.978;2022-07-24T05:07:37;8.68;;;6.45;;
39524;SDS011;25203;50.754;6.978;2022-07-24T05:09:38;6.65;;;5.90;;
39524;SDS011;25203;50.754;6.978;2022-07-24T05:11:38;7.10;;;6.40;;
39524;SDS011;25203;50.754;6.978;2022-07-24T05:13:39;7.10;;;6.18;;
39524;SDS011;25203;50.754;6.978;2022-07-24T05:15:39;7.03;;;6.32;;
39524;SDS011;25203;50.754;6.978;2022-07-24T05:17:40;8.80;;;6.30;;
39524;SDS011;25203;50.754;6.978;2022-07-24T05:19:41;9.52;;;6.40;;
39524;SDS011;25203;50.754;6.978;2022-07-24T05:21:41;8.13;;;6.70;;
39524;SDS011;25203;50.754;6.978;2022-07-24T05:23:42;8.32;;;6.55;;
39524;SDS011;25203;50.754;6.978;2022-07-24T05:25:45;8.45;;;6.50;;
39524;SDS011;25203;50.754;6.978;2022-07-24T05:27:46;7.70;;;5.90;;
39524;SDS011;25203;50.754;6.978;2022-07-24T05:29:46;6.72;;;5.95;;
39524;SDS011;25203;50.754;6.978;2022-07-24T05:31:47;8.45;;;6.55;;
39524;SDS011;25203;50.754;6.978;2022-07-24T05:33:49;7.28;;;6.13;;
39524;SDS011;25203;50.754;6.978;2022-07-24T05:35:49;10.93;;;6.53;;
39524;SDS011;25203;50.754;6.978;2022-07-24T05:37:50;5.90;;;5.35;;
39524;SDS011;25203;50.754;6.978;2022-07-24T05:39:50;5.70;;;5.10;;
39524;SDS011;25203;50.754;6.978;2022-07-24T05:41:51;5.95;;;5.20;;
39524;SDS011;25203;50.754;6.978;2022-07-24T05:43:51;7.13;;;5.95;;
39524;SDS011;25203;50.754;6.978;2022-07-24T05:45:53;6.60;;;5.50;;
39524;SDS011;25203;50.754;6.978;2022-07-24T05:47:54;6.78;;;6.00;;
39524;SDS011;25203;50.754;6.978;2022-07-24T05:49:54;6.25;;;5.63;;
39524;SDS011;25203;50.754;6.978;2022-07-24T05:51:55;6.57;;;5.90;;
39524;SDS011;25203;50.754;6.978;2022-07-24T05:53:56;6.10;;;5.50;;
39524;SDS011;25203;50.754;6.978;2022-07-24T05:55:56;5.75;;;5.13;;
39524;SDS011;25203;50.754;6.978;2022-07-24T05:57:57;5.35;;;4.90;;
39524;SDS011;25203;50.754;6.978;2022-07-24T05:59:57;4.88;;;4.43;;
39524;SDS011;25203;50.754;6.978;2022-07-24T06:01:58;4.78;;;4.25;;
39524;SDS011;25203;50.754;6.978;2022-07-24T06:04:00;5.25;;;4.75;;
39524;SDS011;25203;50.754;6.978;2022-07-24T06:06:00;5.05;;;4.32;;
39524;SDS011;25203;50.754;6.978;2022-07-24T06:08:01;5.22;;;4.72;;
39524;SDS011;25203;50.754;6.978;2022-07-24T06:10:02;4.93;;;4.53;;
39524;SDS011;25203;50.754;6.978;2022-07-24T06:12:03;7.13;;;5.10;;
39524;SDS011;25203;50.754;6.978;2022-07-24T06:14:04;5.18;;;4.60;;
39524;SDS011;25203;50.754;6.978;2022-07-24T06:16:05;6.07;;;4.88;;
39524;SDS011;25203;50.754;6.978;2022-07-24T06:18:06;6.57;;;4.45;;
39524;SDS011;25203;50.754;6.978;2022-07-24T06:20:07;5.95;;;4.95;;
39524;SDS011;25203;50.754;6.978;2022-07-24T06:22:10;9.75;;;5.10;;
39524;SDS011;25203;50.754;6.978;2022-07-24T06:24:10;5.43;;;4.43;;
39524;SDS011;25203;50.754;6.978;2022-07-24T06:26:11;6.28;;;4.80;;
39524;SDS011;25203;50.754;6.978;2022-07-24T06:28:11;6.20;;;4.85;;
39524;SDS011;25203;50.754;6.978;2022-07-24T06:30:19;5.22;;;4.40;;
39524;SDS011;25203;50.754;6.978;2022-07-24T06:32:24;7.55;;;4.95;;
39524;SDS011;25203;50.754;6.978;2022-07-24T06:34:24;7.43;;;4.43;;
39524;SDS011;25203;50.754;6.978;2022-07-24T06:36:25;5.47;;;4.57;;
39524;SDS011;25203;50.754;6.978;2022-07-24T06:38:27;5.32;;;4.20;;
39524;SDS011;25203;50.754;6.978;2022-07-24T06:40:27;5.75;;;5.15;;
39524;SDS011;25203;50.754;6.978;2022-07-24T06:42:28;5.28;;;4.22;;
39524;SDS011;25203;50.754;6.978;2022-07-24T06:44:29;5.35;;;4.47;;
39524;SDS011;25203;50.754;6.978;2022-07-24T06:46:30;4.50;;;4.10;;
39524;SDS011;25203;50.754;6.978;2022-07-24T06:48:31;7.85;;;4.63;;
39524;SDS011;25203;50.754;6.978;2022-07-24T06:50:32;6.18;;;4.80;;
39524;SDS011;25203;50.754;6.978;2022-07-24T06:52:33;5.20;;;4.70;;
39524;SDS011;25203;50.754;6.978;2022-07-24T06:54:33;5.30;;;3.97;;
39524;SDS011;25203;50.754;6.978;2022-07-24T06:56:34;5.30;;;4.53;;
39524;SDS011;25203;50.754;6.978;2022-07-24T06:58:34;4.57;;;4.03;;
39524;SDS011;25203;50.754;6.978;2022-07-24T07:00:35;4.72;;;4.22;;
39524;SDS011;25203;50.754;6.978;2022-07-24T07:02:36;5.47;;;4.43;;
39524;SDS011;25203;50.754;6.978;2022-07-24T07:04:37;4.80;;;4.38;;
39524;SDS011;25203;50.754;6.978;2022-07-24T07:06:38;5.18;;;4.18;;
39524;SDS011;25203;50.754;6.978;2022-07-24T07:08:38;5.63;;;4.40;;
39524;SDS011;25203;50.754;6.978;2022-07-24T07:10:39;6.35;;;4.10;;
39524;SDS011;25203;50.754;6.978;2022-07-24T07:12:39;4.47;;;4.07;;
39524;SDS011;25203;50.754;6.978;2022-07-24T07:14:40;5.38;;;4.20;;
39524;SDS011;25203;50.754;6.978;2022-07-24T07:16:40;5.00;;;4.38;;
39524;SDS011;25203;50.754;6.978;2022-07-24T07:18:41;5.18;;;4.40;;
39524;SDS011;25203;50.754;6.978;2022-07-24T07:20:42;4.47;;;4.07;;
39524;SDS011;25203;50.754;6.978;2022-07-24T07:22:42;5.10;;;3.72;;
39524;SDS011;25203;50.754;6.978;2022-07-24T07:24:43;3.90;;;3.60;;
39524;SDS011;25203;50.754;6.978;2022-07-24T07:26:44;5.10;;;4.13;;
39524;SDS011;25203;50.754;6.978;2022-07-24T07:28:45;5.30;;;4.07;;
39524;SDS011;25203;50.754;6.978;2022-07-24T07:30:45;4.07;;;3.67;;
39524;SDS011;25203;50.754;6.978;2022-07-24T07:32:46;5.00;;;4.00;;
39524;SDS011;25203;50.754;6.978;2022-07-24T07:34:47;7.15;;;4.00;;
39524;SDS011;25203;50.754;6.978;2022-07-24T07:36:47;4.57;;;4.18;;
39524;SDS011;25203;50.754;6.978;2022-07-24T07:38:48;5.40;;;4.03;;
39524;SDS011;25203;50.754;6.978;2022-07-24T07:40:49;4.55;;;4.15;;
39524;SDS011;25203;50.754;6.978;2022-07-24T07:42:49;4.28;;;3.88;;
39524;SDS011;25203;50.754;6.978;2022-07-24T07:44:50;7.38;;;3.55;;
39524;SDS011;25203;50.754;6.978;2022-07-24T07:46:51;7.55;;;4.30;;
39524;SDS011;25203;50.754;6.978;2022-07-24T07:48:53;4.25;;;3.85;;
39524;SDS011;25203;50.754;6.978;2022-07-24T07:50:53;4.38;;;3.55;;
39524;SDS011;25203;50.754;6.978;2022-07-24T07:52:54;3.92;;;3.63;;
39524;SDS011;25203;50.754;6.978;2022-07-24T07:54:55;6.57;;;3.92;;
39524;SDS011;25203;50.754;6.978;2022-07-24T07:56:56;4.03;;;3.30;;
39524;SDS011;25203;50.754;6.978;2022-07-24T07:58:56;6.85;;;4.05;;
39524;SDS011;25203;50.754;6.978;2022-07-24T08:00:57;4.10;;;3.70;;
39524;SDS011;25203;50.754;6.978;2022-07-24T08:02:58;7.65;;;4.15;;
39524;SDS011;25203;50.754;6.978;2022-07-24T08:04:59;5.75;;;3.55;;
39524;SDS011;25203;50.754;6.978;2022-07-24T08:06:59;5.63;;;3.47;;
39524;SDS011;25203;50.754;6.978;2022-07-24T08:09:00;4.38;;;3.13;;
39524;SDS011;25203;50.754;6.978;2022-07-24T08:11:00;3.28;;;2.97;;
39524;SDS011;25203;50.754;6.978;2022-07-24T08:13:01;6.18;;;3.20;;
39524;SDS011;25203;50.754;6.978;2022-07-24T08:15:03;8.45;;;3.30;;
39524;SDS011;25203;50.754;6.978;2022-07-24T08:17:04;3.33;;;2.80;;
39524;SDS011;25203;50.754;6.978;2022-07-24T08:19:04;3.13;;;2.83;;
39524;SDS011;25203;50.754;6.978;2022-07-24T08:21:06;4.38;;;3.13;;
39524;SDS011;25203;50.754;6.978;2022-07-24T08:23:07;3.03;;;2.65;;
39524;SDS011;25203;50.754;6.978;2022-07-24T08:25:07;4.82;;;2.78;;
39524;SDS011;25203;50.754;6.978;2022-07-24T08:27:08;3.65;;;2.70;;
39524;SDS011;25203;50.754;6.978;2022-07-24T08:29:09;2.90;;;2.58;;
39524;SDS011;25203;50.754;6.978;2022-07-24T08:31:09;3.95;;;2.70;;
39524;SDS011;25203;50.754;6.978;2022-07-24T08:33:10;2.65;;;2.45;;
39524;SDS011;25203;50.754;6.978;2022-07-24T08:35:11;3.42;;;3.00;;
39524;SDS011;25203;50.754;6.978;2022-07-24T08:37:12;3.63;;;2.60;;
39524;SDS011;25203;50.754;6.978;2022-07-24T08:39:12;2.85;;;2.50;;
39524;SDS011;25203;50.754;6.978;2022-07-24T08:41:15;4.80;;;3.22;;
39524;SDS011;25203;50.754;6.978;2022-07-24T08:43:16;3.17;;;2.88;;
39524;SDS011;25203;50.754;6.978;2022-07-24T08:45:17;3.58;;;3.20;;
39524;SDS011;25203;50.754;6.978;2022-07-24T08:47:18;4.03;;;2.75;;
39524;SDS011;25203;50.754;6.978;2022-07-24T08:49:19;2.80;;;2.50;;
39524;SDS011;25203;50.754;6.978;2022-07-24T08:51:21;3.90;;;3.17;;
39524;SDS011;25203;50.754;6.978;2022-07-24T08:53:22;5.80;;;3.28;;
39524;SDS011;25203;50.754;6.978;2022-07-24T08:55:23;3.40;;;3.10;;
39524;SDS011;25203;50.754;6.978;2022-07-24T08:57:24;4.10;;;3.00;;
39524;SDS011;25203;50.754;6.978;2022-07-24T08:59:25;5.05;;;3.60;;
39524;SDS011;25203;50.754;6.978;2022-07-24T09:01:26;3.70;;;2.97;;
39524;SDS011;25203;50.754;6.978;2022-07-24T09:03:27;4.32;;;3.20;;
39524;SDS011;25203;50.754;6.978;2022-07-24T09:05:27;3.30;;;3.00;;
39524;SDS011;25203;50.754;6.978;2022-07-24T09:07:30;4.53;;;3.45;;
39524;SDS011;25203;50.754;6.978;2022-07-24T09:09:30;3.88;;;3.20;;
39524;SDS011;25203;50.754;6.978;2022-07-24T09:11:36;3.22;;;2.97;;
39524;SDS011;25203;50.754;6.978;2022-07-24T09:13:37;5.20;;;3.60;;
39524;SDS011;25203;50.754;6.978;2022-07-24T09:15:56;4.53;;;3.53;;
39524;SDS011;25203;50.754;6.978;2022-07-24T09:17:58;3.85;;;3.35;;
39524;SDS011;25203;50.754;6.978;2022-07-24T09:19:59;4.07;;;3.67;;
39524;SDS011;25203;50.754;6.978;2022-07-24T09:22:01;5.60;;;4.05;;
39524;SDS011;25203;50.754;6.978;2022-07-24T09:24:20;3.45;;;3.13;;
39524;SDS011;25203;50.754;6.978;2022-07-24T09:26:21;4.05;;;3.42;;
39524;SDS011;25203;50.754;6.978;2022-07-24T09:28:22;4.35;;;3.80;;
39524;SDS011;25203;50.754;6.978;2022-07-24T09:32:27;5.68;;;3.97;;
39524;SDS011;25203;50.754;6.978;2022-07-24T09:34:29;4.63;;;4.10;;
39524;SDS011;25203;50.754;6.978;2022-07-24T09:36:37;4.20;;;3.63;;
39524;SDS011;25203;50.754;6.978;2022-07-24T09:38:38;3.75;;;3.33;;
39524;SDS011;25203;50.754;6.978;2022-07-24T09:40:50;3.70;;;3.40;;
39524;SDS011;25203;50.754;6.978;2022-07-24T09:43:14;6.03;;;3.90;;
39524;SDS011;25203;50.754;6.978;2022-07-24T09:45:15;5.25;;;3.55;;
39524;SDS011;25203;50.754;6.978;2022-07-24T09:47:15;4.45;;;3.97;;
39524;SDS011;25203;50.754;6.978;2022-07-24T09:49:20;4.32;;;3.92;;
39524;SDS011;25203;50.754;6.978;2022-07-24T09:51:21;9.18;;;3.80;;
39524;SDS011;25203;50.754;6.978;2022-07-24T09:53:23;5.43;;;3.92;;
39524;SDS011;25203;50.754;6.978;2022-07-24T09:55:26;4.10;;;3.67;;
39524;SDS011;25203;50.754;6.978;2022-07-24T09:57:28;5.97;;;3.80;;
39524;SDS011;25203;50.754;6.978;2022-07-24T09:59:29;4.20;;;3.70;;
39524;SDS011;25203;50.754;6.978;2022-07-24T10:01:33;6.25;;;4.57;;
39524;SDS011;25203;50.754;6.978;2022-07-24T10:03:38;4.25;;;3.80;;
39524;SDS011;25203;50.754;6.978;2022-07-24T10:05:42;5.03;;;3.70;;
39524;SDS011;25203;50.754;6.978;2022-07-24T10:07:47;4.18;;;3.50;;
39524;SDS011;25203;50.754;6.978;2022-07-24T10:09:49;4.32;;;3.42;;
39524;SDS011;25203;50.754;6.978;2022-07-24T10:11:51;3.97;;;3.58;;
39524;SDS011;25203;50.754;6.978;2022-07-24T10:13:54;4.20;;;3.50;;
39524;SDS011;25203;50.754;6.978;2022-07-24T10:18:14;6.63;;;3.78;;
39524;SDS011;25203;50.754;6.978;2022-07-24T10:20:18;4.55;;;3.45;;
39524;SDS011;25203;50.754;6.978;2022-07-24T10:22:40;4.28;;;3.70;;
39524;SDS011;25203;50.754;6.978;2022-07-24T10:24:58;4.00;;;3.60;;
39524;SDS011;25203;50.754;6.978;2022-07-24T10:27:04;6.80;;;3.38;;
39524;SDS011;25203;50.754;6.978;2022-07-24T10:29:06;3.70;;;3.40;;
39524;SDS011;25203;50.754;6.978;2022-07-24T10:31:13;3.47;;;3.17;;
39524;SDS011;25203;50.754;6.978;2022-07-24T10:33:16;6.03;;;3.42;;
39524;SDS011;25203;50.754;6.978;2022-07-24T10:41:43;4.78;;;3.33;;
39524;SDS011;25203;50.754;6.978;2022-07-24T10:44:13;3.50;;;3.20;;
39524;SDS011;25203;50.754;6.978;2022-07-24T10:46:17;4.53;;;4.13;;
39524;SDS011;25203;50.754;6.978;2022-07-24T10:50:22;4.43;;;3.50;;
39524;SDS011;25203;50.754;6.978;2022-07-24T10:52:24;4.32;;;3.40;;
39524;SDS011;25203;50.754;6.978;2022-07-24T10:54:30;4.72;;;3.33;;
39524;SDS011;25203;50.754;6.978;2022-07-24T10:58:50;4.13;;;3.70;;
39524;SDS011;25203;50.754;6.978;2022-07-24T11:00:50;4.82;;;3.70;;
39524;SDS011;25203;50.754;6.978;2022-07-24T11:02:55;3.88;;;3.47;;
39524;SDS011;25203;50.754;6.978;2022-07-24T11:07:31;5.40;;;3.80;;
39524;SDS011;25203;50.754;6.978;2022-07-24T11:09:31;4.30;;;3.72;;
39524;SDS011;25203;50.754;6.978;2022-07-24T11:12:07;3.78;;;3.15;;
39524;SDS011;25203;50.754;6.978;2022-07-24T11:14:08;3.47;;;3.17;;
39524;SDS011;25203;50.754;6.978;2022-07-24T11:18:14;4.30;;;3.63;;
39524;SDS011;25203;50.754;6.978;2022-07-24T11:20:15;6.82;;;3.40;;
39524;SDS011;25203;50.754;6.978;2022-07-24T11:22:18;3.13;;;2.90;;
39524;SDS011;25203;50.754;6.978;2022-07-24T11:24:18;4.25;;;3.33;;
39524;SDS011;25203;50.754;6.978;2022-07-24T11:28:36;3.50;;;3.20;;
39524;SDS011;25203;50.754;6.978;2022-07-24T11:30:40;3.75;;;3.40;;
39524;SDS011;25203;50.754;6.978;2022-07-24T11:32:43;4.80;;;3.57;;
39524;SDS011;25203;50.754;6.978;2022-07-24T11:34:45;3.28;;;2.97;;
39524;SDS011;25203;50.754;6.978;2022-07-24T11:36:48;4.60;;;2.78;;
39524;SDS011;25203;50.754;6.978;2022-07-24T11:38:51;6.70;;;3.47;;
39524;SDS011;25203;50.754;6.978;2022-07-24T11:40:52;5.10;;;3.10;;
39524;SDS011;25203;50.754;6.978;2022-07-24T11:43:05;4.45;;;3.50;;
39524;SDS011;25203;50.754;6.978;2022-07-24T11:45:06;3.92;;;3.10;;
39524;SDS011;25203;50.754;6.978;2022-07-24T11:47:09;6.97;;;3.60;;
39524;SDS011;25203;50.754;6.978;2022-07-24T11:49:13;4.15;;;3.20;;
39524;SDS011;25203;50.754;6.978;2022-07-24T11:51:14;4.03;;;3.40;;
39524;SDS011;25203;50.754;6.978;2022-07-24T11:53:15;3.53;;;3.22;;
39524;SDS011;25203;50.754;6.978;2022-07-24T11:55:17;5.63;;;3.17;;
39524;SDS011;25203;50.754;6.978;2022-07-24T11:57:29;4.95;;;3.15;;
39524;SDS011;25203;50.754;6.978;2022-07-24T11:59:32;3.15;;;2.80;;
39524;SDS011;25203;50.754;6.978;2022-07-24T12:01:32;4.13;;;3.00;;
39524;SDS011;25203;50.754;6.978;2022-07-24T12:03:33;6.60;;;3.03;;
39524;SDS011;25203;50.754;6.978;2022-07-24T12:05:35;3.90;;;3.10;;
39524;SDS011;25203;50.754;6.978;2022-07-24T12:07:40;2.85;;;2.65;;
39524;SDS011;25203;50.754;6.978;2022-07-24T12:09:44;5.07;;;3.00;;
39524;SDS011;25203;50.754;6.978;2022-07-24T12:11:51;5.82;;;3.03;;
39524;SDS011;25203;50.754;6.978;2022-07-24T12:13:52;3.78;;;3.10;;
39524;SDS011;25203;50.754;6.978;2022-07-24T12:15:53;5.03;;;2.85;;
39524;SDS011;25203;50.754;6.978;2022-07-24T12:20:02;3.17;;;2.88;;
39524;SDS011;25203;50.754;6.978;2022-07-24T12:22:08;4.50;;;2.73;;
39524;SDS011;25203;50.754;6.978;2022-07-24T12:24:09;6.78;;;3.30;;
39524;SDS011;25203;50.754;6.978;2022-07-24T12:26:10;5.57;;;3.15;;
39524;SDS011;25203;50.754;6.978;2022-07-24T12:28:11;6.15;;;2.63;;
39524;SDS011;25203;50.754;6.978;2022-07-24T12:32:28;4.60;;;2.90;;
39524;SDS011;25203;50.754;6.978;2022-07-24T12:34:47;3.80;;;3.00;;
39524;SDS011;25203;50.754;6.978;2022-07-24T12:36:49;3.25;;;2.95;;
39524;SDS011;25203;50.754;6.978;2022-07-24T12:38:50;3.75;;;3.33;;